createdAt,value
2022-12-03T00:00:26.860Z,84.86
2022-12-03T00:02:53.404Z,84.74
2022-12-03T00:05:20.041Z,84.77
2022-12-03T00:07:46.516Z,85.09
2022-12-03T00:10:13.145Z,85.06
2022-12-03T00:12:39.828Z,85.12
2022-12-03T00:15:07.317Z,85.33
2022-12-03T00:17:33.856Z,85.54
2022-12-03T00:20:00.315Z,85.61
2022-12-03T00:22:26.997Z,85.78
2022-12-03T00:24:53.810Z,85.46
2022-12-03T00:27:20.539Z,85.56
2022-12-03T00:29:47.314Z,85.77
2022-12-03T00:32:14.286Z,86.19
2022-12-03T00:34:40.728Z,85.73
2022-12-03T00:37:07.217Z,86.15
2022-12-03T00:39:33.699Z,86.00
2022-12-03T00:42:00.160Z,86.11
2022-12-03T00:44:27.040Z,86.11
2022-12-03T00:46:53.516Z,86.31
2022-12-03T00:49:20.140Z,86.17
2022-12-03T00:51:46.551Z,86.53
2022-12-03T00:54:13.000Z,86.53
2022-12-03T00:56:39.451Z,86.53
2022-12-03T00:59:05.866Z,86.55
2022-12-03T01:01:32.406Z,86.56
2022-12-03T01:03:58.912Z,87.06
2022-12-03T01:06:25.408Z,86.82
2022-12-03T01:08:52.023Z,86.77
2022-12-03T01:11:36.853Z,86.87
2022-12-03T01:14:10.427Z,87.04
2022-12-03T01:16:37.698Z,87.32
2022-12-03T01:19:05.752Z,87.13
2022-12-03T01:21:32.569Z,87.05
2022-12-03T01:23:59.081Z,87.14
2022-12-03T01:26:25.697Z,87.46
2022-12-03T01:28:53.184Z,87.26
2022-12-03T01:31:38.947Z,87.36
2022-12-03T01:34:05.892Z,87.33
2022-12-03T01:36:34.250Z,87.82
2022-12-03T01:39:01.571Z,87.63
2022-12-03T01:41:28.510Z,87.56
2022-12-03T01:43:56.317Z,87.35
2022-12-03T01:46:25.795Z,87.50
2022-12-03T01:48:55.235Z,87.28
2022-12-03T01:51:22.468Z,87.31
2022-12-03T01:53:49.307Z,87.71
2022-12-03T01:56:18.010Z,87.80
2022-12-03T01:58:46.358Z,87.77
2022-12-03T02:01:16.150Z,88.24
2022-12-03T02:03:44.047Z,87.97
2022-12-03T02:06:21.592Z,87.81
2022-12-03T02:08:49.202Z,87.70
2022-12-03T02:11:27.808Z,88.29
2022-12-03T02:14:06.181Z,87.81
2022-12-03T02:16:35.330Z,88.13
2022-12-03T02:19:02.275Z,87.92
2022-12-03T02:21:50.859Z,87.97
2022-12-03T02:24:33.378Z,87.98
2022-12-03T02:26:59.877Z,87.76
2022-12-03T02:29:26.661Z,87.80
2022-12-03T02:31:53.199Z,88.27
2022-12-03T02:34:40.118Z,88.25
2022-12-03T02:37:10.994Z,88.17
2022-12-03T02:39:40.097Z,88.26
2022-12-03T02:42:25.842Z,88.07
2022-12-03T02:44:53.609Z,88.12
2022-12-03T02:47:22.391Z,88.55
2022-12-03T02:49:50.024Z,88.30
2022-12-03T02:52:16.702Z,88.16
2022-12-03T02:54:43.663Z,88.46
2022-12-03T02:57:10.334Z,88.23
2022-12-03T02:59:37.093Z,88.24
2022-12-03T03:02:03.898Z,88.10
2022-12-03T03:04:30.710Z,88.40
2022-12-03T03:06:57.297Z,88.24
2022-12-03T03:09:24.008Z,88.28
2022-12-03T03:11:50.461Z,88.41
2022-12-03T03:14:17.071Z,88.10
2022-12-03T03:16:43.789Z,88.14
2022-12-03T03:19:10.460Z,88.53
2022-12-03T03:21:36.904Z,88.18
2022-12-03T03:24:04.172Z,88.33
2022-12-03T03:26:30.779Z,88.26
2022-12-03T03:28:59.982Z,88.46
2022-12-03T03:31:26.526Z,88.44
2022-12-03T03:33:53.161Z,88.28
2022-12-03T03:36:20.145Z,88.28
2022-12-03T03:38:47.456Z,88.42
2022-12-03T03:41:15.804Z,88.57
2022-12-03T03:43:44.216Z,88.29
2022-12-03T03:46:12.380Z,88.26
2022-12-03T03:48:40.785Z,88.05
2022-12-03T03:51:09.658Z,88.12
2022-12-03T03:53:42.947Z,87.85
2022-12-03T03:56:10.748Z,88.37
2022-12-03T03:58:38.323Z,88.48
2022-12-03T04:01:05.032Z,88.60
2022-12-03T04:03:31.781Z,88.46
2022-12-03T04:05:58.457Z,88.19
2022-12-03T04:08:24.956Z,87.78
2022-12-03T04:11:10.178Z,87.81
2022-12-03T04:13:36.634Z,87.54
2022-12-03T04:16:03.436Z,87.43
2022-12-03T04:18:45.279Z,87.72
2022-12-03T04:21:32.246Z,87.81
2022-12-03T04:23:58.862Z,87.72
2022-12-03T04:26:43.745Z,87.93
2022-12-03T04:29:10.740Z,87.87
2022-12-03T04:31:55.747Z,87.67
2022-12-03T04:34:40.881Z,87.18
2022-12-03T04:37:07.478Z,87.27
2022-12-03T04:39:34.129Z,86.92
2022-12-03T04:42:00.624Z,86.85
2022-12-03T04:44:39.170Z,86.81
2022-12-03T04:47:08.649Z,87.39
2022-12-03T04:49:38.264Z,87.19
2022-12-03T04:52:05.529Z,86.94
2022-12-03T04:54:32.179Z,87.35
2022-12-03T04:56:58.648Z,87.21
2022-12-03T04:59:25.120Z,87.27
2022-12-03T05:01:51.692Z,87.42
2022-12-03T05:04:18.301Z,87.35
2022-12-03T05:06:44.807Z,87.74
2022-12-03T05:09:11.781Z,87.64
2022-12-03T05:11:38.671Z,87.47
2022-12-03T05:14:05.663Z,87.98
2022-12-03T05:16:32.249Z,87.71
2022-12-03T05:18:58.833Z,87.36
2022-12-03T05:21:25.405Z,88.04
2022-12-03T05:23:51.935Z,87.89
2022-12-03T05:26:18.508Z,87.89
2022-12-03T05:28:45.124Z,87.71
2022-12-03T05:31:11.689Z,87.84
2022-12-03T05:33:43.790Z,88.00
2022-12-03T05:36:10.915Z,88.04
2022-12-03T05:38:37.479Z,88.10
2022-12-03T05:41:24.286Z,88.13
2022-12-03T05:43:50.896Z,88.09
2022-12-03T05:46:17.405Z,88.49
2022-12-03T05:48:44.138Z,88.08
2022-12-03T05:51:10.668Z,88.19
2022-12-03T05:53:37.206Z,87.95
2022-12-03T05:56:03.843Z,87.97
2022-12-03T05:58:30.364Z,87.77
2022-12-03T06:00:56.824Z,87.65
2022-12-03T06:03:23.625Z,87.97
2022-12-03T06:05:50.164Z,87.37
2022-12-03T06:08:16.737Z,87.74
2022-12-03T06:10:43.268Z,88.16
2022-12-03T06:13:09.693Z,87.40
2022-12-03T06:15:41.953Z,87.63
2022-12-03T06:18:10.090Z,87.60
2022-12-03T06:20:36.543Z,87.22
2022-12-03T06:23:03.010Z,86.93
2022-12-03T06:25:29.529Z,87.33
2022-12-03T06:27:55.980Z,87.50
2022-12-03T06:30:22.429Z,87.46
2022-12-03T06:32:48.941Z,87.33
2022-12-03T06:35:15.574Z,87.10
2022-12-03T06:37:42.060Z,86.92
2022-12-03T06:40:09.109Z,86.96
2022-12-03T06:42:35.555Z,87.04
2022-12-03T06:45:02.048Z,87.01
2022-12-03T06:47:28.545Z,86.52
2022-12-03T06:49:55.071Z,86.95
2022-12-03T06:52:21.537Z,86.74
2022-12-03T06:54:47.983Z,86.60
2022-12-03T06:57:14.489Z,87.10
2022-12-03T06:59:40.976Z,86.85
2022-12-03T07:02:07.541Z,86.51
2022-12-03T07:04:34.080Z,86.71
2022-12-03T07:07:00.697Z,86.79
2022-12-03T07:09:27.543Z,86.82
2022-12-03T07:11:54.006Z,86.89
2022-12-03T07:14:20.591Z,86.72
2022-12-03T07:16:47.646Z,86.50
2022-12-03T07:19:14.353Z,86.13
2022-12-03T07:21:40.952Z,86.23
2022-12-03T07:24:07.741Z,86.28
2022-12-03T07:26:34.376Z,85.71
2022-12-03T07:29:00.938Z,85.57
2022-12-03T07:31:27.627Z,86.10
2022-12-03T07:33:54.141Z,85.87
2022-12-03T07:36:20.739Z,86.26
2022-12-03T07:38:47.246Z,86.08
2022-12-03T07:41:13.704Z,86.13
2022-12-03T07:43:40.169Z,86.49
2022-12-03T07:46:06.670Z,86.22
2022-12-03T07:48:33.147Z,86.45
2022-12-03T07:50:59.760Z,86.88
2022-12-03T07:53:26.252Z,86.77
2022-12-03T07:55:53.304Z,86.55
2022-12-03T07:58:19.873Z,86.85
2022-12-03T08:00:48.565Z,87.23
2022-12-03T08:03:15.108Z,87.36
2022-12-03T08:05:41.532Z,87.15
2022-12-03T08:08:08.137Z,87.27
2022-12-03T08:10:34.937Z,87.42
2022-12-03T08:13:05.028Z,87.50
2022-12-03T08:15:37.267Z,87.57
2022-12-03T08:18:15.983Z,87.20
2022-12-03T08:20:45.335Z,87.33
2022-12-03T08:23:15.118Z,87.33
2022-12-03T08:25:42.480Z,87.62
2022-12-03T08:28:14.343Z,87.78
2022-12-03T08:30:42.757Z,87.71
2022-12-03T08:33:17.871Z,87.37
2022-12-03T08:35:50.805Z,87.85
2022-12-03T08:38:19.959Z,87.50
2022-12-03T08:40:48.626Z,87.57
2022-12-03T08:43:25.435Z,87.57
2022-12-03T08:45:54.410Z,87.47
2022-12-03T08:48:38.216Z,87.50
2022-12-03T08:51:12.982Z,87.61
2022-12-03T08:53:46.491Z,87.99
2022-12-03T08:56:21.626Z,87.67
2022-12-03T08:58:52.569Z,87.77
2022-12-03T09:01:42.817Z,88.07
2022-12-03T09:04:21.610Z,87.60
2022-12-03T09:06:48.710Z,87.50
2022-12-03T09:09:15.361Z,87.73
2022-12-03T09:11:43.327Z,87.54
2022-12-03T09:14:15.136Z,87.69
2022-12-03T09:16:44.861Z,87.08
2022-12-03T09:19:11.393Z,87.30
2022-12-03T09:21:37.881Z,87.09
2022-12-03T09:24:04.628Z,87.27
2022-12-03T09:26:31.057Z,87.35
2022-12-03T09:28:57.570Z,87.25
2022-12-03T09:31:24.354Z,87.29
2022-12-03T09:33:51.010Z,86.88
2022-12-03T09:36:17.514Z,87.11
2022-12-03T09:38:47.754Z,87.20
2022-12-03T09:41:14.854Z,87.50
2022-12-03T09:46:29.846Z,87.15
2022-12-03T09:48:56.722Z,86.97
2022-12-03T09:51:27.982Z,86.89
2022-12-03T09:53:54.521Z,86.81
2022-12-03T09:56:23.576Z,85.95
2022-12-03T09:58:50.452Z,84.93
2022-12-03T10:01:17.665Z,84.83
2022-12-03T10:03:52.458Z,84.47
2022-12-03T10:06:23.909Z,84.17
2022-12-03T10:08:54.396Z,83.66
2022-12-03T10:11:24.168Z,83.61
2022-12-03T10:13:51.190Z,84.38
2022-12-03T10:16:20.912Z,84.32
2022-12-03T10:18:51.490Z,84.79
2022-12-03T10:21:24.209Z,85.22
2022-12-03T10:24:19.216Z,85.46
2022-12-03T10:26:47.388Z,85.35
2022-12-03T10:29:17.925Z,85.46
2022-12-03T10:31:45.126Z,85.77
2022-12-03T10:34:11.882Z,85.90
2022-12-03T10:36:38.364Z,85.85
2022-12-03T10:39:09.585Z,86.25
2022-12-03T10:41:37.740Z,86.25
2022-12-03T10:44:22.389Z,86.52
2022-12-03T10:47:07.364Z,86.41
2022-12-03T10:49:34.946Z,86.86
2022-12-03T10:52:02.176Z,85.98
2022-12-03T10:54:31.223Z,86.01
2022-12-03T10:56:57.880Z,86.63
2022-12-03T10:59:28.315Z,84.83
2022-12-03T11:01:54.781Z,85.39
2022-12-03T11:04:35.353Z,85.08
2022-12-03T11:07:03.409Z,85.75
2022-12-03T11:09:32.324Z,85.43
2022-12-03T11:12:07.604Z,85.19
2022-12-03T11:14:54.690Z,85.50
2022-12-03T11:17:46.985Z,85.74
2022-12-03T11:20:36.115Z,85.76
2022-12-03T11:23:02.609Z,85.07
2022-12-03T11:25:29.191Z,85.32
2022-12-03T11:28:14.058Z,85.23
2022-12-03T11:30:56.808Z,85.58
2022-12-03T11:33:29.233Z,85.13
2022-12-03T11:36:05.336Z,84.60
2022-12-03T11:38:38.234Z,84.62
2022-12-03T11:41:32.012Z,84.95
2022-12-03T11:43:59.560Z,84.20
2022-12-03T11:46:41.994Z,84.55
2022-12-03T11:49:39.457Z,84.79
2022-12-03T11:52:22.085Z,84.52
2022-12-03T11:54:53.274Z,84.60
2022-12-03T11:57:45.466Z,84.47
2022-12-03T12:00:23.462Z,84.28
2022-12-03T12:02:52.285Z,84.39
2022-12-03T12:05:32.633Z,84.39
2022-12-03T12:08:01.244Z,84.01
2022-12-03T12:10:41.986Z,83.98
2022-12-03T12:13:30.364Z,83.78
2022-12-03T12:15:58.330Z,84.17
2022-12-03T12:18:33.996Z,83.80
2022-12-03T12:21:38.809Z,83.70
2022-12-03T12:24:47.378Z,83.91
2022-12-03T12:27:30.671Z,83.83
2022-12-03T12:29:59.805Z,84.22
2022-12-03T12:32:26.475Z,83.93
2022-12-03T12:34:57.825Z,84.09
2022-12-03T12:37:33.778Z,84.07
2022-12-03T12:40:06.445Z,84.11
2022-12-03T12:42:38.438Z,84.27
2022-12-03T12:45:17.373Z,84.32
2022-12-03T12:47:56.520Z,84.68
2022-12-03T12:50:23.021Z,84.70
2022-12-03T12:52:52.692Z,84.76
2022-12-03T12:55:19.353Z,84.59
2022-12-03T12:57:46.225Z,84.58
2022-12-03T13:00:22.198Z,84.56
2022-12-03T13:03:11.168Z,85.11
2022-12-03T13:05:43.164Z,84.77
2022-12-03T13:08:20.936Z,85.13
2022-12-03T13:10:47.758Z,84.69
2022-12-03T13:13:31.016Z,85.01
2022-12-03T13:15:59.704Z,84.45
2022-12-03T13:18:48.418Z,84.87
2022-12-03T13:21:36.211Z,85.00
2022-12-03T13:24:10.353Z,84.82
2022-12-03T13:26:39.751Z,85.07
2022-12-03T13:29:18.450Z,84.55
2022-12-03T13:32:16.003Z,85.02
2022-12-03T13:34:42.784Z,85.26
2022-12-03T13:37:14.308Z,85.57
2022-12-03T13:39:47.621Z,85.33
2022-12-03T13:42:39.452Z,86.41
2022-12-03T13:45:15.088Z,86.63
2022-12-03T13:47:43.791Z,86.99
2022-12-03T13:50:40.938Z,87.14
2022-12-03T13:53:23.543Z,87.19
2022-12-03T13:56:16.187Z,87.75
2022-12-03T13:58:42.645Z,87.84
2022-12-03T14:01:09.256Z,87.80
2022-12-03T14:03:35.692Z,87.97
2022-12-03T14:06:02.140Z,88.05
2022-12-03T14:08:28.586Z,88.58
2022-12-03T14:11:00.538Z,89.21
2022-12-03T14:13:27.338Z,88.74
2022-12-03T14:15:53.996Z,88.86
2022-12-03T14:18:20.572Z,88.96
2022-12-03T14:20:48.230Z,88.63
2022-12-03T14:23:14.927Z,88.74
2022-12-03T14:25:43.816Z,88.73
2022-12-03T14:28:10.796Z,88.98
2022-12-03T14:30:37.483Z,88.55
2022-12-03T14:33:04.803Z,88.37
2022-12-03T14:35:31.294Z,88.25
2022-12-03T14:37:57.817Z,88.04
2022-12-03T14:40:24.419Z,87.55
2022-12-03T14:42:50.964Z,87.61
2022-12-03T14:45:17.490Z,87.64
2022-12-03T14:47:44.023Z,87.58
2022-12-03T14:50:14.551Z,87.15
2022-12-03T14:52:41.401Z,87.33
2022-12-03T14:55:08.341Z,86.93
2022-12-03T14:57:34.902Z,87.01
2022-12-03T15:00:01.446Z,87.16
2022-12-03T15:02:28.951Z,87.16
2022-12-03T15:04:55.510Z,86.80
2022-12-03T15:07:22.060Z,86.96
2022-12-03T15:09:48.654Z,86.86
2022-12-03T15:12:15.124Z,86.20
2022-12-03T15:14:42.486Z,86.51
2022-12-03T15:17:09.089Z,86.43
2022-12-03T15:19:35.655Z,86.70
2022-12-03T15:22:02.147Z,86.43
2022-12-03T15:24:28.860Z,86.44
2022-12-03T15:26:55.929Z,86.77
2022-12-03T15:29:23.066Z,86.31
2022-12-03T15:31:49.733Z,86.31
2022-12-03T15:34:22.128Z,86.11
2022-12-03T15:36:48.846Z,86.34
2022-12-03T15:39:15.342Z,86.33
2022-12-03T15:41:41.808Z,86.60
2022-12-03T15:44:08.336Z,86.88
2022-12-03T15:46:34.899Z,86.26
2022-12-03T15:49:01.412Z,86.81
2022-12-03T15:51:27.980Z,86.68
2022-12-03T15:53:54.448Z,87.07
2022-12-03T15:56:21.029Z,87.30
2022-12-03T15:58:47.681Z,87.39
2022-12-03T16:01:14.517Z,87.40
2022-12-03T16:03:41.830Z,87.49
2022-12-03T16:06:10.606Z,87.44
2022-12-03T16:08:37.142Z,87.63
2022-12-03T16:11:03.691Z,87.59
2022-12-03T16:13:30.200Z,87.58
2022-12-03T16:15:56.677Z,87.90
2022-12-03T16:18:23.221Z,87.66
2022-12-03T16:20:49.905Z,87.70
2022-12-03T16:23:16.329Z,88.05
2022-12-03T16:25:42.859Z,88.03
2022-12-03T16:28:09.398Z,87.61
2022-12-03T16:30:36.316Z,87.99
2022-12-03T16:33:02.892Z,87.50
2022-12-03T16:35:29.504Z,87.61
2022-12-03T16:37:56.071Z,87.92
2022-12-03T16:40:22.530Z,87.73
2022-12-03T16:42:49.056Z,87.75
2022-12-03T16:45:21.533Z,87.87
2022-12-03T16:47:48.141Z,87.58
2022-12-03T16:50:21.903Z,87.65
2022-12-03T16:52:54.062Z,87.48
2022-12-03T16:55:20.479Z,87.78
2022-12-03T16:57:47.010Z,87.65
2022-12-03T17:00:14.245Z,87.54
2022-12-03T17:02:40.821Z,87.47
2022-12-03T17:05:07.641Z,87.93
2022-12-03T17:07:34.287Z,87.85
2022-12-03T17:10:00.848Z,88.05
2022-12-03T17:12:37.440Z,87.87
2022-12-03T17:15:13.990Z,87.54
2022-12-03T17:17:40.471Z,87.89
2022-12-03T17:20:08.269Z,87.69
2022-12-03T17:22:34.810Z,87.83
2022-12-03T17:25:01.328Z,87.63
2022-12-03T17:27:27.881Z,87.98
2022-12-03T17:29:54.522Z,88.00
2022-12-03T17:32:21.236Z,87.75
2022-12-03T17:34:47.653Z,87.55
2022-12-03T17:37:14.130Z,87.71
2022-12-03T17:39:40.659Z,88.06
2022-12-03T17:42:07.334Z,87.82
2022-12-03T17:44:33.841Z,87.78
2022-12-03T17:47:00.390Z,88.19
2022-12-03T17:49:31.319Z,87.97
2022-12-03T17:51:58.406Z,88.40
2022-12-03T17:54:34.102Z,87.94
2022-12-03T17:57:11.574Z,88.44
2022-12-03T17:59:38.051Z,88.28
2022-12-03T18:02:04.688Z,88.50
2022-12-03T18:04:31.316Z,88.47
2022-12-03T18:07:02.110Z,88.32
2022-12-03T18:09:29.041Z,88.31
2022-12-03T18:11:55.577Z,88.25
2022-12-03T18:14:22.029Z,88.07
2022-12-03T18:16:48.514Z,88.36
2022-12-03T18:19:30.098Z,88.17
2022-12-03T18:21:56.663Z,88.36
2022-12-03T18:24:23.779Z,88.45
2022-12-03T18:26:50.548Z,88.59
2022-12-03T18:29:17.190Z,88.43
2022-12-03T18:31:43.704Z,88.20
2022-12-03T18:34:10.215Z,88.59
2022-12-03T18:36:37.026Z,88.36
2022-12-03T18:39:05.990Z,88.77
2022-12-03T18:41:33.424Z,88.10
2022-12-03T18:44:03.535Z,88.16
2022-12-03T18:46:53.507Z,88.22
2022-12-03T18:49:17.702Z,88.32
2022-12-03T18:51:44.211Z,88.46
2022-12-03T18:54:14.054Z,88.06
2022-12-03T18:56:41.323Z,87.98
2022-12-03T18:59:08.283Z,88.09
2022-12-03T19:01:35.235Z,87.87
2022-12-03T19:04:02.319Z,88.14
2022-12-03T19:06:30.580Z,88.23
2022-12-03T19:08:57.712Z,87.78
2022-12-03T19:11:24.524Z,87.57
2022-12-03T19:13:51.834Z,88.22
2022-12-03T19:16:19.026Z,87.61
2022-12-03T19:18:45.882Z,88.02
2022-12-03T19:21:14.864Z,87.80
2022-12-03T19:23:47.223Z,87.99
2022-12-03T19:26:21.070Z,88.36
2022-12-03T19:28:47.591Z,87.92
2022-12-03T19:31:16.572Z,87.56
2022-12-03T19:33:44.063Z,87.42
2022-12-03T19:36:22.569Z,87.85
2022-12-03T19:38:56.673Z,87.13
2022-12-03T19:41:26.581Z,87.42
2022-12-03T19:43:55.330Z,87.43
2022-12-03T19:46:24.170Z,86.91
2022-12-03T19:48:50.989Z,87.35
2022-12-03T19:51:33.704Z,87.03
2022-12-03T19:54:02.066Z,87.31
2022-12-03T19:56:30.242Z,87.19
2022-12-03T19:58:57.636Z,87.27
2022-12-03T20:01:27.863Z,86.69
2022-12-03T20:03:56.746Z,86.69
2022-12-03T20:06:26.056Z,87.26
2022-12-03T20:09:01.203Z,86.63
2022-12-03T20:11:30.865Z,86.76
2022-12-03T20:14:16.552Z,86.35
2022-12-03T20:16:44.348Z,86.47
2022-12-03T20:19:13.480Z,86.72
2022-12-03T20:21:40.149Z,86.75
2022-12-03T20:24:08.110Z,86.32
2022-12-03T20:26:34.784Z,86.41
2022-12-03T20:29:01.831Z,86.47
2022-12-03T20:31:30.897Z,86.52
2022-12-03T20:34:00.279Z,86.30
2022-12-03T20:36:28.453Z,86.29
2022-12-03T20:38:57.375Z,86.02
2022-12-03T20:41:24.474Z,86.23
2022-12-03T20:43:51.727Z,86.76
2022-12-03T20:46:29.506Z,86.59
2022-12-03T20:48:57.249Z,86.29
2022-12-03T20:51:26.605Z,86.33
2022-12-03T20:53:53.519Z,86.43
2022-12-03T20:56:26.666Z,86.39
2022-12-03T20:58:53.753Z,86.80
2022-12-03T21:01:26.568Z,86.70
2022-12-03T21:03:55.314Z,86.63
2022-12-03T21:06:23.682Z,86.43
2022-12-03T21:08:52.403Z,86.50
2022-12-03T21:11:23.912Z,86.11
2022-12-03T21:13:50.784Z,86.59
2022-12-03T21:16:34.135Z,86.36
2022-12-03T21:19:07.785Z,86.69
2022-12-03T21:21:35.451Z,86.42
2022-12-03T21:24:02.073Z,86.70
2022-12-03T21:26:28.593Z,86.94
2022-12-03T21:28:55.513Z,86.27
2022-12-03T21:31:25.767Z,86.53
2022-12-03T21:33:56.619Z,86.30
2022-12-03T21:36:24.680Z,86.26
2022-12-03T21:38:51.624Z,86.46
2022-12-03T21:41:18.268Z,86.44
2022-12-03T21:43:45.046Z,86.45
2022-12-03T21:47:12.137Z,86.40
2022-12-03T21:49:01.523Z,86.75
2022-12-03T21:51:28.131Z,86.52
2022-12-03T21:53:54.845Z,86.76
2022-12-03T21:56:21.552Z,86.45
2022-12-03T21:58:48.096Z,86.53
2022-12-03T22:01:19.110Z,86.70
2022-12-03T22:03:46.257Z,87.06
2022-12-03T22:06:13.264Z,86.97
2022-12-03T22:08:40.372Z,86.29
2022-12-03T22:11:09.715Z,86.71
2022-12-03T22:13:38.527Z,86.45
2022-12-03T22:16:10.424Z,86.43
2022-12-03T22:18:37.299Z,86.71
2022-12-03T22:21:09.313Z,86.87
2022-12-03T22:23:35.829Z,86.67
2022-12-03T22:26:05.064Z,86.57
2022-12-03T22:28:32.491Z,87.03
2022-12-03T22:30:59.124Z,86.99
2022-12-03T22:33:25.681Z,87.08
2022-12-03T22:36:03.883Z,87.02
2022-12-03T22:38:31.795Z,86.93
2022-12-03T22:40:59.907Z,86.80
2022-12-03T22:43:26.660Z,86.70
2022-12-03T22:45:54.763Z,86.52
2022-12-03T22:48:22.198Z,86.76
2022-12-03T22:50:49.494Z,87.00
2022-12-03T22:53:16.071Z,87.21
2022-12-03T22:55:42.626Z,87.01
2022-12-03T22:58:09.997Z,86.74
2022-12-03T23:00:39.207Z,86.65
2022-12-03T23:03:06.969Z,87.55
2022-12-03T23:05:36.848Z,87.60
2022-12-03T23:08:05.289Z,87.08
2022-12-03T23:10:36.840Z,87.18
2022-12-03T23:13:04.721Z,87.39
2022-12-03T23:15:32.368Z,87.78
2022-12-03T23:17:59.014Z,87.58
2022-12-03T23:20:26.371Z,87.24
2022-12-03T23:22:53.335Z,87.29
2022-12-03T23:25:20.439Z,87.20
2022-12-03T23:27:47.434Z,87.21
2022-12-03T23:30:15.769Z,87.33
2022-12-03T23:32:44.517Z,87.16
2022-12-03T23:35:12.186Z,87.49
2022-12-03T23:37:38.718Z,87.59
2022-12-03T23:40:05.998Z,87.20
2022-12-03T23:42:32.506Z,87.29
2022-12-03T23:44:59.033Z,87.37
2022-12-03T23:47:25.489Z,87.51
2022-12-03T23:49:52.196Z,87.69
2022-12-03T23:52:18.774Z,87.66
2022-12-03T23:54:45.521Z,87.54
2022-12-03T23:57:12.838Z,87.94
2022-12-03T23:59:39.732Z,87.65
